Arickaree, Colorado
Current Conditions -  °F | °C
As of 1:55 PM on Thursday 23 Oct 2014 (Local Time) from KLIC Reporting Station
Clear Clear  
Wind Chill: 71°   Ceiling: Unl
Heat Index: 71°   Visibility: 10mi
Dew Point: 28°   Wind: 7mph
Humidity: 20%   Direction: NA
Pressure: 30.14"   Gusts: NA
Location:  39.6673°N, 103.47°W
Report Text: KLIC 231955Z AUTO VRB06KT 10SM CLR 22/M02 A3014 RMK AO2 SLP161 T02171022
Loading
Personal Weather Stations






























Interactive Weather Map New forecast layout! Learn more

10-Day Weather Forecast

Advertisements
Track Severe Weather on mobile